ADDS METAR Data INFO
IDs: Format: Raw Decoded Include TAF

Data at: 1512 UTC 21 Feb 2018

KSRB 211435Z AUTO 20009KT 10SM OVC028 22/17 A3032 RMK A01
KSRB 211415Z AUTO 19012KT 10SM BKN028 BKN065 22/17 A3031 RMK A01
KSRB 211355Z AUTO 19010G18KT 10SM SCT028 SCT035 SCT065 21/17 A3030 RMK A01
KSRB 211335Z AUTO 20011G20KT 10SM BKN027 BKN032 BKN040 21/17 A3030 RMK A01
KSRB 211315Z AUTO 20012KT 10SM BKN027 BKN033 BKN039 21/17 A3029 RMK A01
KSRB 211255Z AUTO 20010G18KT 10SM FEW028 SCT070 SCT110 20/17 A3028 RMK A01
KSRB 201515Z AUTO 18011G19KT 10SM BKN046 21/15 A3029 RMK A01
KSRB 201455Z AUTO 18012KT 10SM SCT046 21/15 A3029 RMK A01
KSRB 201435Z AUTO 19011G18KT 10SM CLR 20/15 A3029 RMK A01
KSRB 201415Z AUTO 18010G17KT 10SM CLR 19/14 A3028 RMK A01
KSRB 201355Z AUTO 18011G16KT 10SM CLR 18/14 A3027 RMK A01
KSRB 201335Z AUTO 17011KT 10SM CLR 18/14 A3027 RMK A01
KSRB 201315Z AUTO 17008KT 10SM CLR 17/14 A3026 RMK A01
KSRB 201255Z AUTO 16009KT 10SM CLR 17/14 A3026 RMK A01
KSRB 201235Z AUTO 16007G13KT 10SM CLR 16/14 A3026 RMK A01
KSRB 201215Z AUTO 18008KT 10SM FEW044 FEW050 16/14 A3026 RMK A01
KSRB 201155Z AUTO 18008G13KT 10SM FEW032 SCT044 BKN050 17/14 A3026 RMK A01
KSRB 201135Z AUTO 16011KT 10SM BKN033 BKN039 BKN044 16/14 A3025 RMK A01
KSRB 201115Z AUTO 17007KT 10SM SCT034 BKN041 BKN055 17/14 A3025 RMK A01
KSRB 201055Z AUTO 17008KT 10SM SCT033 SCT039 SCT055 17/14 A3024 RMK A01
KSRB 201035Z AUTO 16008KT 10SM SCT029 SCT033 17/14 A3024 RMK A01
KSRB 201015Z AUTO 16005KT 10SM SCT029 BKN034 BKN055 17/14 A3024 RMK A01
KSRB 200955Z AUTO 17007KT 10SM SCT033 BKN050 17/14 A3024 RMK A01
KSRB 200935Z AUTO 16007KT 10SM FEW034 FEW046 FEW050 17/14 A3023 RMK A01
KSRB 200915Z AUTO 17007KT 10SM FEW033 FEW043 SCT050 17/14 A3022 RMK A01
KSRB 200855Z AUTO 17007KT 130V190 10SM FEW032 FEW050 17/14 A3023 RMK A01
KSRB 200835Z AUTO 18008KT 10SM CLR 17/14 A3023 RMK A01
KSRB 200815Z AUTO 18007G12KT 10SM CLR 17/14 A3023 RMK A01
KSRB 200755Z AUTO 16011KT 10SM CLR 17/14 A3023 RMK A01
KSRB 200735Z AUTO 17011G17KT 10SM CLR 17/14 A3023 RMK A01
KSRB 200715Z AUTO 17010G15KT 10SM FEW055 17/14 A3023 RMK A01
KSRB 200655Z AUTO 17010KT 10SM FEW055 17/14 A3023 RMK A01
KSRB 200635Z AUTO 17010KT 130V200 10SM FEW055 17/14 A3022 RMK A01
KSRB 200615Z AUTO 18010KT 10SM FEW055 17/14 A3022 RMK A01
KSRB 200555Z AUTO 17010G15KT 10SM FEW055 17/14 A3021 RMK A01
KSRB 200535Z AUTO 16009G15KT 10SM CLR 17/14 A3021 RMK A01
KSRB 200515Z AUTO 16008G15KT 10SM CLR 17/14 A3021 RMK A01
KSRB 200455Z AUTO 17009KT 10SM FEW050 17/14 A3021 RMK A01
KSRB 200435Z AUTO 17008KT 10SM CLR 17/14 A3021 RMK A01
KSRB 200415Z AUTO 17007KT 10SM CLR 17/14 A3021 RMK A01
KSRB 200355Z AUTO 17007G12KT 10SM SCT055 17/14 A3021 RMK A01
KSRB 200335Z AUTO 17006KT 10SM FEW060 17/14 A3021 RMK A01
KSRB 200315Z AUTO 17007KT 10SM FEW050 FEW055 17/14 A3021 RMK A01